Time;durP1;ratioP1;P1;durP2;ratioP2;P2;SDS_P1;SDS_P2;PMS_P1;PMS_P2;Temp;Humidity;BMP_temperature;BMP_pressure;BME280_temperature;BME280_humidity;BME280_pressure;Samples;Min_cycle;Max_cycle;Signal;HPM_P1;HPM_P2
2022/06/01 00:01:59;;;;;;;1.75;1.30;;;;;;;11.29;97.54;101196.59;5030284;28;20756;-47
2022/06/01 00:04:24;;;;;;;1.25;1.25;;;;;;;11.07;97.49;101199.16;5030462;28;20202;-47
2022/06/01 00:06:50;;;;;;;2.33;1.70;;;;;;;11.01;97.87;101202.03;5031253;28;20265;-49
2022/06/01 00:09:16;;;;;;;2.80;1.85;;;;;;;10.82;98.65;101203.59;5031222;28;20184;-49
2022/06/01 00:11:41;;;;;;;2.25;1.58;;;;;;;10.85;99.83;101208.88;5031229;28;20936;-48
2022/06/01 00:14:07;;;;;;;1.60;1.50;;;;;;;10.98;100.00;101202.16;5030797;28;20184;-49
2022/06/01 00:16:32;;;;;;;1.73;1.63;;;;;;;11.10;100.00;101199.03;5031328;28;20267;-48
2022/06/01 00:18:58;;;;;;;1.48;1.38;;;;;;;11.13;99.73;101196.25;5031444;28;20191;-49
2022/06/01 00:21:24;;;;;;;2.17;1.70;;;;;;;10.99;99.48;101195.84;5031239;28;20183;-47
2022/06/01 00:23:49;;;;;;;1.80;1.70;;;;;;;10.99;99.57;101206.56;5030797;28;20290;-45
2022/06/01 00:26:16;;;;;;;2.45;1.70;;;;;;;10.97;99.42;101203.06;5031026;28;20255;-44
2022/06/01 00:28:41;;;;;;;2.10;1.90;;;;;;;10.95;99.78;101196.88;5031249;28;20187;-46
2022/06/01 00:31:06;;;;;;;2.25;1.60;;;;;;;11.06;99.69;101196.50;5031415;28;20167;-47
2022/06/01 00:33:32;;;;;;;1.75;1.65;;;;;;;11.02;100.00;101201.13;5030729;28;20200;-45
2022/06/01 00:35:57;;;;;;;1.88;1.70;;;;;;;11.00;100.00;101196.72;5030305;28;20793;-47
2022/06/01 00:38:23;;;;;;;3.67;1.73;;;;;;;10.95;99.89;101190.66;5031221;28;20500;-49
2022/06/01 00:40:49;;;;;;;1.52;1.35;;;;;;;10.82;99.98;101192.88;5030866;28;20291;-50
2022/06/01 00:43:21;;;;;;;1.67;1.58;;;;;;;10.97;100.00;101184.31;5030889;28;20184;-48
2022/06/01 00:45:46;;;;;;;1.70;1.60;;;;;;;10.90;100.00;101191.69;5030794;28;20208;-48
2022/06/01 00:48:13;;;;;;;1.92;1.58;;;;;;;11.08;100.00;101179.44;5030987;28;20184;-47
2022/06/01 00:50:41;;;;;;;1.80;1.70;;;;;;;11.10;100.00;101188.31;5031067;28;20196;-49
2022/06/01 00:53:16;;;;;;;1.35;1.25;;;;;;;11.17;100.00;101186.28;5030600;28;20275;-49
2022/06/01 00:55:46;;;;;;;2.70;1.63;;;;;;;10.97;99.42;101176.25;5031012;28;20502;-49
2022/06/01 00:58:19;;;;;;;1.25;1.25;;;;;;;11.09;100.00;101189.25;5030805;28;20175;-50
2022/06/01 01:00:46;;;;;;;3.72;1.42;;;;;;;11.19;99.40;101181.75;5030810;28;20256;-48
2022/06/01 01:03:13;;;;;;;1.80;1.30;;;;;;;10.97;99.15;101191.47;5030663;28;20196;-49
2022/06/01 01:05:43;;;;;;;1.33;1.23;;;;;;;11.10;99.51;101185.63;5030503;28;20559;-47
2022/06/01 01:08:09;;;;;;;2.13;1.35;;;;;;;11.07;99.69;101182.19;5030752;28;20171;-48
2022/06/01 01:10:54;;;;;;;1.63;1.40;;;;;;;10.98;100.00;101191.44;5029189;28;20179;-48
2022/06/01 01:13:20;;;;;;;1.75;1.45;;;;;;;10.92;100.00;101186.28;5030744;28;20196;-51
2022/06/01 01:15:52;;;;;;;1.25;1.25;;;;;;;10.87;100.00;101183.75;5029490;28;20172;-48
2022/06/01 01:18:19;;;;;;;1.10;0.98;;;;;;;10.91;100.00;101193.44;5030444;28;20165;-49
2022/06/01 01:20:57;;;;;;;2.00;1.33;;;;;;;10.96;100.00;101184.38;5025964;28;20199;-52
2022/06/01 01:23:43;;;;;;;2.25;1.90;;;;;;;10.76;100.00;101196.63;5024076;28;20249;-48
2022/06/01 01:26:09;;;;;;;1.60;1.50;;;;;;;10.66;100.00;101184.47;5030473;28;20647;-49
2022/06/01 01:28:34;;;;;;;2.42;1.40;;;;;;;10.56;100.00;101193.72;5029941;28;20176;-51
2022/06/01 01:31:23;;;;;;;2.42;1.73;;;;;;;10.49;100.00;101182.31;5030270;28;20220;-48
2022/06/01 01:33:51;;;;;;;1.90;1.77;;;;;;;10.56;100.00;101177.63;5027804;28;20223;-50
2022/06/01 01:36:28;;;;;;;2.10;1.90;;;;;;;10.49;100.00;101175.19;5029777;28;20267;-49
2022/06/01 01:39:01;;;;;;;3.25;2.22;;;;;;;10.54;100.00;101183.06;5030225;28;20188;-48
2022/06/01 01:41:47;;;;;;;2.90;2.30;;;;;;;10.48;100.00;101169.88;5030022;28;20183;-50
2022/06/01 01:44:28;;;;;;;2.63;2.10;;;;;;;10.57;100.00;101174.06;5029648;28;20218;-50
2022/06/01 01:46:56;;;;;;;2.53;2.33;;;;;;;10.52;100.00;101174.22;5030088;28;20658;-52
2022/06/01 01:49:31;;;;;;;3.10;2.70;;;;;;;10.42;100.00;101176.28;5030317;28;20694;-54
2022/06/01 01:52:00;;;;;;;2.70;2.30;;;;;;;10.40;100.00;101170.09;5030907;28;20258;-51
2022/06/01 01:54:49;;;;;;;5.13;3.15;;;;;;;10.40;100.00;101159.38;5029809;28;20191;-49
2022/06/01 01:57:26;;;;;;;4.10;3.15;;;;;;;10.38;100.00;101157.69;5029984;28;20181;-55
2022/06/01 02:00:07;;;;;;;5.07;3.50;;;;;;;10.33;100.00;101152.47;5028556;28;20202;-49
2022/06/01 02:02:50;;;;;;;3.40;3.10;;;;;;;10.50;100.00;101152.81;5029746;28;20254;-53
2022/06/01 02:08:08;;;;;;;5.35;3.28;;;;;;;10.56;100.00;101158.88;5029899;28;20251;-48
2022/06/01 02:13:20;;;;;;;4.10;3.70;;;;;;;10.41;100.00;101155.81;5011673;28;20204;-50
2022/06/01 02:15:49;;;;;;;3.80;3.33;;;;;;;10.54;100.00;101164.31;5010219;28;20229;-49
2022/06/01 02:18:22;;;;;;;5.53;3.90;;;;;;;10.45;100.00;101162.81;5010056;28;20609;-48
2022/06/01 02:21:01;;;;;;;5.82;3.72;;;;;;;10.39;100.00;101172.84;5010194;28;20548;-52
2022/06/01 02:23:31;;;;;;;4.40;3.42;;;;;;;10.44;100.00;101169.06;5009117;28;20583;-48
2022/06/01 02:25:59;;;;;;;4.95;3.70;;;;;;;10.46;100.00;101169.03;5008747;28;20687;-49
2022/06/01 02:28:26;;;;;;;4.65;3.80;;;;;;;10.37;100.00;101175.56;5010054;28;20211;-48
2022/06/01 02:30:53;;;;;;;3.65;3.38;;;;;;;10.31;100.00;101173.06;5010196;28;20308;-51
2022/06/01 02:33:23;;;;;;;3.97;3.55;;;;;;;10.27;100.00;101171.38;5009719;28;20295;-50
2022/06/01 02:35:52;;;;;;;5.03;3.67;;;;;;;10.34;100.00;101158.72;5009919;28;20241;-53
2022/06/01 02:38:25;;;;;;;3.45;2.95;;;;;;;10.20;100.00;101160.00;5010060;28;20476;-48
2022/06/01 02:40:51;;;;;;;4.60;3.10;;;;;;;10.03;100.00;101156.97;5009816;28;20638;-51
2022/06/01 02:43:17;;;;;;;3.10;2.85;;;;;;;10.07;100.00;101156.81;5009532;28;20203;-49
2022/06/01 02:45:42;;;;;;;6.43;2.70;;;;;;;9.98;100.00;101150.88;5009956;28;20611;-53
2022/06/01 02:48:08;;;;;;;2.50;2.30;;;;;;;9.90;100.00;101152.00;5011066;28;20184;-50
2022/06/01 02:50:36;;;;;;;4.40;2.67;;;;;;;9.89;100.00;101147.56;5013327;28;20176;-48
2022/06/01 02:53:02;;;;;;;4.30;2.83;;;;;;;10.00;100.00;101143.69;5012931;28;20202;-50
2022/06/01 02:55:29;;;;;;;4.70;2.33;;;;;;;10.00;100.00;101143.69;5013161;28;20223;-50
2022/06/01 02:57:56;;;;;;;2.30;2.10;;;;;;;9.99;100.00;101152.63;5013404;28;20666;-52
2022/06/01 03:00:33;;;;;;;2.45;2.25;;;;;;;10.00;100.00;101151.72;5013250;28;20250;-51
2022/06/01 03:03:01;;;;;;;2.22;2.05;;;;;;;9.96;100.00;101155.41;5012677;28;20250;-53
2022/06/01 03:05:32;;;;;;;3.92;2.33;;;;;;;9.95;100.00;101165.25;5013060;28;20224;-50
2022/06/01 03:07:57;;;;;;;2.63;2.42;;;;;;;9.87;100.00;101157.44;5013244;28;20667;-53
2022/06/01 03:10:24;;;;;;;5.95;2.67;;;;;;;9.86;100.00;101155.69;5028506;28;20180;-48
2022/06/01 03:12:53;;;;;;;2.38;2.20;;;;;;;9.93;100.00;101163.50;5028197;28;20212;-51
2022/06/01 03:15:22;;;;;;;2.33;2.13;;;;;;;9.97;100.00;101168.75;5031040;28;20183;-51
2022/06/01 03:17:48;;;;;;;2.60;2.40;;;;;;;10.07;100.00;101162.16;5031874;28;20232;-48
2022/06/01 03:20:17;;;;;;;3.10;2.78;;;;;;;10.10;100.00;101159.41;5030428;28;20178;-49
2022/06/01 03:22:43;;;;;;;2.70;2.50;;;;;;;10.16;100.00;101160.13;5030302;28;20296;-49
2022/06/01 03:25:22;;;;;;;2.65;2.45;;;;;;;10.13;100.00;101169.16;5031411;28;20216;-47
2022/06/01 03:27:49;;;;;;;5.60;3.10;;;;;;;9.97;100.00;101159.81;5031996;28;20195;-49
2022/06/01 03:30:18;;;;;;;3.97;2.70;;;;;;;10.14;100.00;101168.22;5031459;28;20180;-49
2022/06/01 03:32:44;;;;;;;4.85;2.75;;;;;;;10.06;100.00;101164.91;5031960;28;20198;-47
2022/06/01 03:35:11;;;;;;;3.47;3.15;;;;;;;9.96;100.00;101152.72;5031614;28;20168;-45
2022/06/01 03:37:37;;;;;;;3.67;3.30;;;;;;;10.05;100.00;101152.44;5031739;28;20241;-46
2022/06/01 03:40:03;;;;;;;3.40;3.10;;;;;;;9.99;100.00;101157.97;5030589;28;20188;-49
2022/06/01 03:42:30;;;;;;;4.78;3.63;;;;;;;9.92;100.00;101157.28;5031536;28;20208;-46
2022/06/01 03:47:40;;;;;;;3.70;3.20;;;;;;;9.72;100.00;101151.66;5031671;28;20206;-44
2022/06/01 03:50:06;;;;;;;4.28;3.63;;;;;;;9.78;100.00;101149.69;5031454;28;20632;-43
2022/06/01 03:52:32;;;;;;;3.97;3.58;;;;;;;9.78;100.00;101156.84;5031632;28;20210;-47
2022/06/01 03:54:57;;;;;;;4.20;3.88;;;;;;;9.73;100.00;101143.59;5030655;28;20635;-44
2022/06/01 03:57:23;;;;;;;5.35;3.60;;;;;;;9.93;100.00;101145.66;5031021;28;20259;-43
2022/06/01 03:59:48;;;;;;;3.58;3.28;;;;;;;9.88;100.00;101150.25;5031677;28;20176;-45
2022/06/01 04:02:14;;;;;;;5.82;3.97;;;;;;;9.87;100.00;101149.41;5031178;28;20658;-47
2022/06/01 04:04:39;;;;;;;7.57;3.80;;;;;;;9.87;100.00;101168.13;5029968;28;20201;-48
2022/06/01 04:07:05;;;;;;;3.70;3.40;;;;;;;9.86;100.00;101165.50;5031082;28;20183;-47
2022/06/01 04:09:30;;;;;;;4.10;3.10;;;;;;;9.79;100.00;101167.47;5031232;28;20655;-44
2022/06/01 04:11:57;;;;;;;3.50;3.20;;;;;;;9.72;100.00;101165.03;5030970;28;20191;-49
2022/06/01 04:14:23;;;;;;;5.07;3.70;;;;;;;9.79;100.00;101166.59;5029201;28;20203;-47
2022/06/01 04:16:49;;;;;;;4.18;3.78;;;;;;;9.71;100.00;101158.81;5031182;28;20639;-45
2022/06/01 04:19:15;;;;;;;4.03;3.53;;;;;;;9.65;100.00;101159.00;5031014;28;20206;-47
2022/06/01 04:21:43;;;;;;;5.15;3.03;;;;;;;9.75;100.00;101154.22;5030842;28;20168;-47
2022/06/01 04:24:12;;;;;;;3.85;3.50;;;;;;;9.79;100.00;101147.88;5030368;28;20222;-46
2022/06/01 04:26:38;;;;;;;3.58;3.28;;;;;;;9.75;100.00;101149.78;5031085;28;20340;-46
2022/06/01 04:29:03;;;;;;;3.67;3.35;;;;;;;9.70;100.00;101138.31;5030881;28;20263;-45
2022/06/01 04:31:29;;;;;;;3.75;3.45;;;;;;;9.76;100.00;101138.16;5031131;28;20175;-45
2022/06/01 04:33:55;;;;;;;3.25;2.95;;;;;;;9.88;100.00;101143.13;5030368;28;20195;-46
2022/06/01 04:36:20;;;;;;;4.63;3.28;;;;;;;9.78;100.00;101147.00;5031045;28;20222;-46
2022/06/01 04:38:46;;;;;;;2.67;2.47;;;;;;;9.92;100.00;101135.00;5029607;28;20827;-48
2022/06/01 04:41:11;;;;;;;3.50;3.30;;;;;;;9.93;100.00;101142.09;5029363;28;20191;-47
2022/06/01 04:43:36;;;;;;;5.00;3.75;;;;;;;9.77;100.00;101141.69;5030385;28;20223;-46
2022/06/01 04:46:02;;;;;;;3.33;3.03;;;;;;;9.84;100.00;101141.47;5030573;28;20212;-46
2022/06/01 04:48:28;;;;;;;3.28;2.97;;;;;;;9.68;100.00;101142.84;5030988;28;20662;-48
2022/06/01 04:50:55;;;;;;;5.10;3.20;;;;;;;9.69;100.00;101136.59;5030628;28;20168;-48
2022/06/01 04:53:20;;;;;;;3.60;3.30;;;;;;;9.68;100.00;101127.66;5029862;28;20187;-48
2022/06/01 04:55:47;;;;;;;3.10;2.90;;;;;;;9.75;100.00;101123.03;5030587;28;20175;-46
2022/06/01 04:58:13;;;;;;;2.90;2.70;;;;;;;9.72;100.00;101115.06;5030218;28;20180;-47
2022/06/01 05:00:40;;;;;;;3.03;2.38;;;;;;;9.73;100.00;101119.53;5030640;28;20179;-47
2022/06/01 05:03:06;;;;;;;2.63;2.42;;;;;;;9.61;100.00;101122.53;5029986;28;20614;-47
2022/06/01 05:05:35;;;;;;;2.67;2.35;;;;;;;9.60;100.00;101118.09;5030443;28;20222;-48
2022/06/01 05:08:00;;;;;;;2.58;2.38;;;;;;;9.57;100.00;101112.84;5030145;28;20670;-47
2022/06/01 05:10:27;;;;;;;2.95;2.75;;;;;;;9.61;100.00;101111.84;5029875;28;20180;-46
2022/06/01 05:12:53;;;;;;;2.80;2.63;;;;;;;9.58;100.00;101114.63;5016315;28;20208;-48
2022/06/01 05:15:19;;;;;;;2.30;2.10;;;;;;;9.68;100.00;101106.25;5009584;28;20185;-45
2022/06/01 05:17:44;;;;;;;2.50;2.30;;;;;;;9.67;100.00;101117.03;5010637;28;20177;-47
2022/06/01 05:20:10;;;;;;;2.67;2.47;;;;;;;9.72;100.00;101127.59;5010835;28;20206;-47
2022/06/01 05:22:36;;;;;;;2.13;2.03;;;;;;;9.77;100.00;101117.59;5010189;28;20199;-47
2022/06/01 05:25:02;;;;;;;2.50;2.30;;;;;;;9.77;100.00;101125.63;5010650;28;20612;-48
2022/06/01 05:27:28;;;;;;;2.70;2.42;;;;;;;9.83;100.00;101110.28;5010444;28;20231;-46
2022/06/01 05:29:54;;;;;;;3.35;2.80;;;;;;;9.85;100.00;101111.09;5010780;28;20192;-45
2022/06/01 05:32:20;;;;;;;2.45;2.30;;;;;;;9.92;100.00;101110.91;5010713;28;20200;-44
2022/06/01 05:34:45;;;;;;;4.00;2.50;;;;;;;9.93;100.00;101109.97;5010201;28;20173;-46
2022/06/01 05:37:10;;;;;;;2.58;2.47;;;;;;;9.99;100.00;101118.72;5010536;28;20272;-46
2022/06/01 05:39:36;;;;;;;2.53;2.42;;;;;;;9.99;100.00;101118.72;5010524;28;20211;-46
2022/06/01 05:42:01;;;;;;;2.47;2.25;;;;;;;9.96;100.00;101112.56;5010492;28;20173;-45
2022/06/01 05:44:27;;;;;;;3.00;2.78;;;;;;;9.97;100.00;101115.22;5010448;28;20292;-44
2022/06/01 05:46:57;;;;;;;2.70;2.50;;;;;;;10.03;100.00;101128.38;5010708;28;20208;-43
2022/06/01 05:49:23;;;;;;;2.60;2.50;;;;;;;10.06;100.00;101128.31;5010962;28;20223;-44
2022/06/01 05:51:48;;;;;;;3.03;2.83;;;;;;;10.05;100.00;101137.25;5010403;28;20636;-44
2022/06/01 05:54:14;;;;;;;2.35;2.22;;;;;;;10.24;100.00;101134.00;5010196;28;20193;-42
2022/06/01 05:56:39;;;;;;;3.17;2.50;;;;;;;10.28;100.00;101135.66;5010672;28;20207;-43
2022/06/01 05:59:05;;;;;;;3.75;2.72;;;;;;;10.19;100.00;101136.84;5010377;28;20188;-44
2022/06/01 06:01:31;;;;;;;3.00;2.80;;;;;;;10.36;100.00;101130.06;5010487;28;20165;-41
2022/06/01 06:03:57;;;;;;;2.60;2.40;;;;;;;10.73;100.00;101119.00;5010215;28;20623;-44
2022/06/01 06:06:23;;;;;;;3.17;2.97;;;;;;;10.95;100.00;101129.00;5010343;28;20541;-45
2022/06/01 06:09:00;;;;;;;3.22;2.92;;;;;;;11.33;100.00;101138.34;5010593;28;20613;-44
2022/06/01 06:11:29;;;;;;;3.17;2.97;;;;;;;11.50;100.00;101127.88;5010743;28;20255;-45
2022/06/01 06:13:55;;;;;;;2.40;2.30;;;;;;;11.93;100.00;101128.94;5010705;28;20228;-43
2022/06/01 06:16:21;;;;;;;2.80;2.47;;;;;;;11.89;100.00;101130.00;5010502;28;20179;-44
2022/06/01 06:18:47;;;;;;;2.50;2.30;;;;;;;11.84;100.00;101131.94;5010775;28;20168;-44
2022/06/01 06:21:13;;;;;;;2.08;1.98;;;;;;;11.92;98.54;101124.53;5010560;28;20169;-44
2022/06/01 06:23:39;;;;;;;2.10;2.00;;;;;;;11.74;96.24;101130.53;5012675;28;20557;-46
2022/06/01 06:26:05;;;;;;;3.53;1.92;;;;;;;11.91;94.81;101132.63;5014834;28;20200;-46
2022/06/01 06:28:32;;;;;;;1.70;1.60;;;;;;;12.39;94.89;101128.03;5014306;28;20218;-47
2022/06/01 06:30:58;;;;;;;2.22;2.10;;;;;;;12.46;94.40;101126.84;5014522;28;20165;-45
2022/06/01 06:33:23;;;;;;;2.40;2.20;;;;;;;12.33;94.91;101135.44;5013964;28;20197;-46
2022/06/01 06:36:01;;;;;;;2.15;1.80;;;;;;;12.27;94.86;101138.34;5013856;28;20230;-45
2022/06/01 06:38:28;;;;;;;2.13;2.03;;;;;;;12.01;94.03;101144.75;5013646;28;20188;-45
2022/06/01 06:40:55;;;;;;;2.53;1.98;;;;;;;12.33;94.12;101139.91;5013745;28;20164;-49
2022/06/01 06:43:22;;;;;;;2.80;1.92;;;;;;;12.19;92.54;101135.09;5013551;28;20315;-43
2022/06/01 06:45:50;;;;;;;2.70;2.30;;;;;;;12.11;92.16;101147.94;5013299;28;20209;-46
2022/06/01 06:48:17;;;;;;;2.03;1.92;;;;;;;12.18;91.63;101151.25;5013524;28;20169;-43
2022/06/01 06:50:42;;;;;;;2.33;1.70;;;;;;;12.25;91.28;101145.59;5013370;28;20650;-45
2022/06/01 06:53:08;;;;;;;1.85;1.75;;;;;;;12.46;91.05;101141.19;5012858;28;20288;-50
2022/06/01 06:55:33;;;;;;;2.92;2.65;;;;;;;12.66;90.55;101134.97;5013144;28;20554;-44
2022/06/01 06:57:58;;;;;;;2.00;1.80;;;;;;;12.75;90.16;101136.41;5012985;28;20169;-45
2022/06/01 07:00:24;;;;;;;1.80;1.70;;;;;;;13.13;90.23;101137.41;5016636;28;20183;-47
2022/06/01 07:02:49;;;;;;;1.83;1.73;;;;;;;13.28;88.75;101130.53;5032592;28;20597;-45
2022/06/01 07:06:08;;;;;;;1.95;1.60;;;;;;;13.46;89.77;101136.03;5032583;28;20192;-47
2022/06/01 07:08:02;;;;;;;2.00;1.85;;;;;;;14.19;89.61;101135.28;5032649;28;20215;-44
2022/06/01 07:10:28;;;;;;;1.30;1.20;;;;;;;13.71;85.97;101133.06;5031131;28;20183;-45
2022/06/01 07:12:53;;;;;;;1.50;1.40;;;;;;;13.69;85.19;101133.16;5032455;28;20188;-46
2022/06/01 07:15:18;;;;;;;2.05;1.40;;;;;;;14.17;88.36;101131.78;5032578;28;20195;-43
2022/06/01 07:17:44;;;;;;;1.30;1.20;;;;;;;13.85;85.04;101141.38;5032280;28;20222;-46
2022/06/01 07:20:10;;;;;;;1.45;1.23;;;;;;;13.83;83.11;101131.63;5032564;28;20295;-45
2022/06/01 07:22:35;;;;;;;0.90;0.90;;;;;;;13.86;81.58;101143.13;5032152;28;20207;-47
2022/06/01 07:25:01;;;;;;;0.90;0.90;;;;;;;14.27;82.51;101137.56;5032021;28;20192;-44
2022/06/01 07:27:26;;;;;;;1.13;1.10;;;;;;;14.68;81.82;101133.81;5032715;28;20199;-46
2022/06/01 07:29:51;;;;;;;1.00;0.90;;;;;;;14.49;82.17;101136.53;5032114;28;20215;-48
2022/06/01 07:32:17;;;;;;;1.30;1.20;;;;;;;14.30;81.12;101137.44;5032427;28;20199;-45
2022/06/01 07:34:42;;;;;;;1.05;0.95;;;;;;;14.25;81.55;101127.81;5031485;28;20539;-45
2022/06/01 07:45:20;;;;;;;0.82;0.80;;;;;;;13.17;80.92;101135.47;5031966;28;20194;-48
2022/06/01 07:47:45;;;;;;;0.63;0.63;;;;;;;13.35;80.74;101136.50;5031904;28;20168;-45
2022/06/01 07:50:11;;;;;;;1.27;0.80;;;;;;;13.55;81.47;101135.59;5032225;28;20164;-45
2022/06/01 07:52:36;;;;;;;0.85;0.85;;;;;;;13.23;79.83;101134.31;5031887;28;20580;-48
2022/06/01 07:55:02;;;;;;;0.90;0.90;;;;;;;13.34;79.32;101134.78;5031112;28;20169;-41
2022/06/01 07:57:28;;;;;;;0.73;0.73;;;;;;;13.66;79.28;101132.41;5063778;28;20191;-45
2022/06/01 07:59:53;;;;;;;0.73;0.73;;;;;;;13.95;78.99;101134.63;5031465;28;20180;-43
2022/06/01 08:02:19;;;;;;;0.70;0.70;;;;;;;14.05;76.62;101132.34;5032046;28;20172;-46
2022/06/01 08:04:44;;;;;;;0.73;0.73;;;;;;;14.51;78.37;101132.78;5031023;28;20200;-45
2022/06/01 08:07:10;;;;;;;0.90;0.90;;;;;;;14.72;79.33;101127.31;5031455;28;20178;-45
2022/06/01 08:09:35;;;;;;;1.02;0.70;;;;;;;14.62;76.38;101132.28;5031335;28;20544;-45
2022/06/01 08:14:45;;;;;;;1.95;0.85;;;;;;;14.37;77.18;101136.19;5030948;28;20167;-44
2022/06/01 08:17:10;;;;;;;0.68;0.68;;;;;;;14.04;76.68;101141.41;5031129;28;20168;-45
2022/06/01 08:19:35;;;;;;;0.68;0.68;;;;;;;13.97;76.66;101138.13;5031049;28;20172;-46
2022/06/01 08:22:01;;;;;;;0.77;0.65;;;;;;;14.28;77.91;101135.75;5031379;28;20274;-43
2022/06/01 08:24:27;;;;;;;0.75;0.70;;;;;;;14.80;77.49;101122.38;5030324;28;20691;-44
2022/06/01 08:26:53;;;;;;;0.80;0.80;;;;;;;14.60;75.01;101134.19;5031217;28;20718;-45
2022/06/01 08:29:18;;;;;;;0.60;0.60;;;;;;;14.70;74.93;101132.78;5031405;28;20282;-45
2022/06/01 08:31:44;;;;;;;0.65;0.65;;;;;;;14.34;73.52;101130.97;5030825;28;20180;-48
2022/06/01 08:34:10;;;;;;;0.63;0.60;;;;;;;14.34;74.69;101133.66;5029571;28;20297;-44
2022/06/01 08:36:36;;;;;;;0.70;0.70;;;;;;;14.20;74.08;101136.13;5030811;28;20323;-44
2022/06/01 08:39:01;;;;;;;0.90;0.90;;;;;;;14.15;74.75;101144.44;5031030;28;20176;-45
2022/06/01 08:41:34;;;;;;;0.63;0.63;;;;;;;14.07;75.19;101133.16;5031197;28;20183;-45
2022/06/01 08:44:06;;;;;;;0.65;0.65;;;;;;;13.91;74.77;101133.03;5030922;28;20683;-44
2022/06/01 08:46:34;;;;;;;0.65;0.65;;;;;;;13.84;77.11;101152.22;5030267;28;20719;-45
2022/06/01 08:49:04;;;;;;;1.35;0.80;;;;;;;13.97;77.34;101135.44;5031138;28;20485;-44
2022/06/01 08:51:31;;;;;;;1.95;0.85;;;;;;;13.82;77.52;101144.22;5031224;28;20286;-42
2022/06/01 08:53:59;;;;;;;1.00;0.98;;;;;;;13.92;78.81;101140.13;5029049;28;20233;-48
2022/06/01 08:56:30;;;;;;;1.77;1.20;;;;;;;13.80;78.66;101136.22;5030389;28;20172;-45
2022/06/01 08:59:14;;;;;;;1.00;1.00;;;;;;;13.79;79.13;101134.44;5030984;28;20658;-44
2022/06/01 09:01:57;;;;;;;1.38;1.30;;;;;;;13.60;78.31;101136.28;5030423;28;20191;-44
2022/06/01 09:04:37;;;;;;;0.70;0.70;;;;;;;13.68;77.92;101127.81;5030163;28;20203;-44
2022/06/01 09:07:17;;;;;;;1.08;1.00;;;;;;;13.76;77.13;101131.91;5030181;28;20172;-43
2022/06/01 09:10:04;;;;;;;0.98;0.98;;;;;;;13.75;77.30;101140.06;5029197;28;20183;-45
2022/06/01 09:12:32;;;;;;;0.98;0.98;;;;;;;13.69;76.99;101132.28;5030288;28;20230;-44
2022/06/01 09:14:58;;;;;;;1.05;0.80;;;;;;;13.57;76.74;101137.25;5030224;28;20264;-45
2022/06/01 09:17:26;;;;;;;2.30;1.10;;;;;;;13.62;77.32;101138.88;5030791;28;20275;-48
2022/06/01 09:22:41;;;;;;;1.27;0.88;;;;;;;13.40;79.07;101145.22;5029963;28;20222;-47
2022/06/01 09:25:15;;;;;;;2.08;1.20;;;;;;;13.36;77.83;101141.81;5029844;28;20187;-44
2022/06/01 09:27:48;;;;;;;1.23;1.10;;;;;;;13.36;77.94;101146.34;5030275;28;20171;-45
2022/06/01 09:30:40;;;;;;;1.05;0.90;;;;;;;13.51;76.23;101142.97;5028840;28;20233;-44
2022/06/01 09:33:26;;;;;;;0.73;0.73;;;;;;;13.43;75.07;101145.13;5018245;28;20264;-44
2022/06/01 09:36:06;;;;;;;1.15;0.90;;;;;;;13.32;75.51;101144.72;5030337;28;20233;-44
2022/06/01 09:38:49;;;;;;;1.05;0.90;;;;;;;13.30;76.94;101141.22;5029900;28;20178;-44
2022/06/01 09:41:24;;;;;;;0.98;0.88;;;;;;;13.47;76.77;101148.53;5030253;28;20637;-44
2022/06/01 09:44:11;;;;;;;0.90;0.90;;;;;;;13.66;77.60;101149.44;5029803;28;20234;-44
2022/06/01 09:46:50;;;;;;;0.85;0.85;;;;;;;13.86;79.60;101137.72;5030081;28;20233;-44
2022/06/01 09:49:31;;;;;;;0.90;0.90;;;;;;;14.14;77.59;101145.38;5028942;28;20706;-43
2022/06/01 09:52:06;;;;;;;0.80;0.80;;;;;;;14.26;80.38;101145.75;5028927;28;20208;-45
2022/06/01 09:54:34;;;;;;;1.58;0.90;;;;;;;14.54;78.45;101147.94;5029730;28;20639;-45
2022/06/01 09:57:24;;;;;;;0.63;0.63;;;;;;;14.72;78.04;101146.22;5031085;28;20263;-43
2022/06/01 10:08:21;;;;;;;2.03;1.52;;;;;;;16.07;68.40;101139.03;5033606;28;20298;-44
2022/06/01 10:11:03;;;;;;;3.42;1.25;;;;;;;16.04;68.46;101134.66;5034245;28;20180;-46
2022/06/01 10:13:31;;;;;;;1.83;1.38;;;;;;;15.22;67.39;101129.22;5033530;28;20287;-45
2022/06/01 10:16:00;;;;;;;1.13;1.02;;;;;;;14.69;67.52;101143.66;5033690;28;20601;-45
2022/06/01 10:18:30;;;;;;;1.52;0.98;;;;;;;14.67;67.82;101138.34;5033777;28;20164;-44
2022/06/01 10:21:05;;;;;;;1.27;1.10;;;;;;;14.30;67.24;101145.53;5033451;28;20168;-43
2022/06/01 10:23:51;;;;;;;2.60;1.20;;;;;;;14.09;68.73;101151.94;5033435;28;20698;-43
2022/06/01 10:26:31;;;;;;;2.17;1.20;;;;;;;14.38;70.47;101135.22;5031972;28;20199;-43
2022/06/01 10:29:12;;;;;;;1.50;1.40;;;;;;;14.31;70.38;101146.41;5033633;28;20658;-44
2022/06/01 10:31:42;;;;;;;1.75;1.40;;;;;;;14.71;70.01;101148.00;5033684;28;20171;-46
2022/06/01 10:34:32;;;;;;;3.08;1.52;;;;;;;14.39;70.00;101139.69;5033031;28;20222;-44
2022/06/01 10:37:03;;;;;;;2.70;1.60;;;;;;;14.30;70.00;101136.53;5033691;28;20192;-45
2022/06/01 10:39:38;;;;;;;1.55;1.45;;;;;;;14.88;71.07;101136.38;5033299;28;20272;-45
2022/06/01 10:42:07;;;;;;;1.98;1.35;;;;;;;14.92;68.22;101129.88;5033517;28;20290;-43
2022/06/01 10:44:41;;;;;;;1.42;1.33;;;;;;;15.57;68.03;101138.13;5032942;28;20583;-45
2022/06/01 10:47:18;;;;;;;1.98;1.77;;;;;;;15.36;66.84;101128.50;5032928;28;20164;-44
2022/06/01 10:50:18;;;;;;;1.77;1.67;;;;;;;15.89;65.35;101121.13;5033048;28;20168;-47
2022/06/01 10:52:51;;;;;;;2.22;1.63;;;;;;;15.55;65.28;101122.97;5000235;28;20254;-47
2022/06/01 10:55:31;;;;;;;2.33;1.70;;;;;;;16.03;65.45;101115.84;5033337;28;20631;-43
2022/06/01 10:57:59;;;;;;;1.75;1.50;;;;;;;16.10;65.89;101116.38;5032664;28;20168;-44
2022/06/01 11:00:43;;;;;;;1.67;1.40;;;;;;;16.62;64.35;101121.47;5033018;28;20534;-45
2022/06/01 11:03:14;;;;;;;2.35;1.83;;;;;;;16.50;60.50;101103.25;5032533;28;20212;-45
2022/06/01 11:06:22;;;;;;;1.60;1.50;;;;;;;16.93;59.89;101108.84;5032652;28;20192;-48
2022/06/01 11:09:12;;;;;;;1.48;1.38;;;;;;;16.69;59.99;101109.31;5008577;28;20334;-48
2022/06/01 11:12:10;;;;;;;3.50;1.17;;;;;;;16.96;61.39;101116.75;5032713;28;20196;-43
2022/06/01 11:15:05;;;;;;;1.77;1.40;;;;;;;16.72;60.41;101116.38;5032603;28;20227;-45
2022/06/01 11:17:45;;;;;;;1.75;1.25;;;;;;;16.84;61.18;101112.97;5032406;28;20191;-48
2022/06/01 11:20:28;;;;;;;1.35;1.25;;;;;;;17.07;59.43;101111.56;5032578;28;20225;-47
2022/06/01 11:23:28;;;;;;;1.58;1.48;;;;;;;17.48;57.91;101109.00;5032137;28;20216;-44
2022/06/01 11:26:03;;;;;;;1.02;1.00;;;;;;;16.76;59.75;101116.09;5031250;28;20695;-45
2022/06/01 11:28:46;;;;;;;1.33;1.10;;;;;;;16.65;59.41;101124.84;5032115;28;20164;-44
2022/06/01 11:31:21;;;;;;;1.40;1.10;;;;;;;16.05;58.76;101132.84;5032584;28;20181;-45
2022/06/01 11:34:04;;;;;;;1.42;1.25;;;;;;;15.38;60.88;101137.38;5050038;28;20591;-44
2022/06/01 11:36:59;;;;;;;2.10;1.20;;;;;;;15.38;63.79;101140.06;5019248;28;20169;-46
2022/06/01 11:39:34;;;;;;;1.50;1.40;;;;;;;15.37;65.64;101184.22;5008035;28;20629;-47
2022/06/01 11:42:14;;;;;;;5.85;1.52;;;;;;;13.72;72.73;101196.75;5011933;28;20203;-45
2022/06/01 11:44:46;;;;;;;11.20;3.28;;;;;;;13.37;78.29;101199.22;5009949;28;20208;-47
2022/06/01 11:47:14;;;;;;;17.27;3.60;;;;;;;11.85;84.60;101202.63;5011012;28;20188;-51
2022/06/01 11:49:43;;;;;;;22.63;4.20;;;;;;;11.11;88.88;101205.31;5011949;28;20695;-48
2022/06/01 11:52:24;;;;;;;12.70;3.30;;;;;;;10.79;90.76;101222.47;5011630;28;20655;-50
2022/06/01 11:55:27;;;;;;;11.05;2.60;;;;;;;10.80;93.00;101226.88;5011551;28;20185;-48
2022/06/01 11:58:03;;;;;;;6.57;2.88;;;;;;;11.07;94.66;101225.09;5011563;28;20180;-49
2022/06/01 12:00:40;;;;;;;6.47;2.70;;;;;;;10.79;94.55;101225.13;5011951;28;20176;-49
2022/06/01 12:03:20;;;;;;;6.38;2.85;;;;;;;10.84;95.25;101223.19;5010974;28;20204;-47
2022/06/01 12:06:07;;;;;;;16.70;3.00;;;;;;;10.81;96.49;101229.50;5011698;28;20323;-47
2022/06/01 12:08:50;;;;;;;4.55;2.22;;;;;;;10.82;94.92;101239.31;5011335;28;20188;-49